createdAt,value
2022-10-23T00:02:42.000Z,13.30
2022-10-23T00:05:46.673Z,13.30
2022-10-23T00:08:52.693Z,13.30
2022-10-23T00:11:58.680Z,13.30
2022-10-23T00:15:03.794Z,13.30
2022-10-23T00:18:08.699Z,13.32
2022-10-23T00:21:14.689Z,13.34
2022-10-23T00:24:20.724Z,13.30
2022-10-23T00:27:26.720Z,13.30
2022-10-23T00:30:31.725Z,13.30
2022-10-23T00:33:37.752Z,13.30
2022-10-23T00:36:45.740Z,13.30
2022-10-23T00:39:50.762Z,13.30
2022-10-23T00:42:55.775Z,13.30
2022-10-23T00:46:04.791Z,13.30
2022-10-23T00:52:14.801Z,13.40
2022-10-23T00:55:19.787Z,13.40
2022-10-23T00:58:25.833Z,13.40
2022-10-23T01:01:34.919Z,13.40
2022-10-23T01:04:39.825Z,13.40
2022-10-23T01:07:44.997Z,13.40
2022-10-23T01:10:49.907Z,13.30
2022-10-23T01:13:54.857Z,13.30
2022-10-23T01:17:00.880Z,13.30
2022-10-23T01:20:05.891Z,13.30
2022-10-23T01:23:10.851Z,13.30
2022-10-23T01:26:15.887Z,13.30
2022-10-23T01:29:21.873Z,13.28
2022-10-23T01:32:26.889Z,13.30
2022-10-23T01:35:32.894Z,13.30
2022-10-23T01:38:38.900Z,13.30
2022-10-23T01:41:43.888Z,13.30
2022-10-23T01:44:48.961Z,13.30
2022-10-23T01:47:53.909Z,13.40
2022-10-23T01:51:00.007Z,13.40
2022-10-23T01:54:05.937Z,13.50
2022-10-23T01:57:10.991Z,13.50
2022-10-23T02:00:15.008Z,13.50
2022-10-23T02:03:20.974Z,13.50
2022-10-23T02:06:25.972Z,13.58
2022-10-23T02:09:31.026Z,13.60
2022-10-23T02:12:35.989Z,13.52
2022-10-23T02:15:41.003Z,13.50
2022-10-23T02:18:46.023Z,13.46
2022-10-23T02:21:52.025Z,13.50
2022-10-23T02:24:57.020Z,13.46
2022-10-23T02:28:02.028Z,13.50
2022-10-23T02:31:08.033Z,13.46
2022-10-23T02:34:13.062Z,13.42
2022-10-23T02:37:18.073Z,13.30
2022-10-23T02:40:24.064Z,13.30
2022-10-23T02:43:29.130Z,13.30
2022-10-23T02:46:34.066Z,13.30
2022-10-23T02:49:38.096Z,13.30
2022-10-23T02:52:43.079Z,13.20
2022-10-23T02:55:48.125Z,13.20
2022-10-23T02:58:53.085Z,13.20
2022-10-23T03:02:01.157Z,13.12
2022-10-23T03:05:06.120Z,13.20
2022-10-23T03:08:11.203Z,13.24
2022-10-23T03:11:16.116Z,13.28
2022-10-23T03:14:21.124Z,13.30
2022-10-23T03:17:26.252Z,13.30
2022-10-23T03:20:31.134Z,13.20
2022-10-23T03:23:37.150Z,13.20
2022-10-23T03:26:41.147Z,13.20
2022-10-23T03:29:34.171Z,13.20
2022-10-23T03:32:39.177Z,13.22
2022-10-23T03:35:43.271Z,13.20
2022-10-23T03:38:48.169Z,13.10
2022-10-23T03:41:53.218Z,13.08
2022-10-23T03:44:58.241Z,13.00
2022-10-23T03:48:04.224Z,12.98
2022-10-23T03:51:09.228Z,12.90
2022-10-23T03:54:13.240Z,12.80
2022-10-23T03:57:19.244Z,12.70
2022-10-23T04:00:12.264Z,12.68
2022-10-23T04:03:17.269Z,12.66
2022-10-23T04:06:23.246Z,12.60
2022-10-23T04:09:28.302Z,12.42
2022-10-23T04:12:33.286Z,12.48
2022-10-23T04:15:38.293Z,12.50
2022-10-23T04:18:43.308Z,12.58
2022-10-23T04:21:49.319Z,12.60
2022-10-23T04:24:55.309Z,12.54
2022-10-23T04:28:03.356Z,12.50
2022-10-23T04:30:57.340Z,12.50
2022-10-23T04:34:03.412Z,12.60
2022-10-23T04:37:08.336Z,12.60
2022-10-23T04:40:13.367Z,12.60
2022-10-23T04:43:18.340Z,12.44
2022-10-23T04:46:23.392Z,12.40
2022-10-23T04:49:28.402Z,12.44
2022-10-23T04:52:35.442Z,12.40
2022-10-23T04:55:41.391Z,12.48
2022-10-23T04:58:45.433Z,12.50
2022-10-23T05:01:49.433Z,12.52
2022-10-23T05:04:54.465Z,12.60
2022-10-23T05:08:02.415Z,12.50
2022-10-23T05:11:07.557Z,12.40
2022-10-23T05:14:12.463Z,12.40
2022-10-23T05:17:18.412Z,12.40
2022-10-23T05:20:24.478Z,12.40
2022-10-23T05:23:29.450Z,12.46
2022-10-23T05:26:37.491Z,12.50
2022-10-23T05:29:42.454Z,12.52
2022-10-23T05:32:36.539Z,12.60
2022-10-23T05:35:41.488Z,12.62
2022-10-23T05:38:47.547Z,12.70
2022-10-23T05:41:52.499Z,12.64
2022-10-23T05:44:57.543Z,12.70
2022-10-23T05:48:10.779Z,12.70
2022-10-23T05:51:22.548Z,12.74
2022-10-23T05:54:27.598Z,12.80
2022-10-23T05:57:32.558Z,12.90
2022-10-23T06:00:40.559Z,13.00
2022-10-23T06:03:34.566Z,13.10
2022-10-23T06:06:40.681Z,13.20
2022-10-23T06:09:45.553Z,13.30
2022-10-23T06:12:50.567Z,13.50
2022-10-23T06:15:56.570Z,13.70
2022-10-23T06:19:01.606Z,13.98
2022-10-23T06:22:07.662Z,14.22
2022-10-23T06:25:13.625Z,14.44
2022-10-23T06:28:20.604Z,14.60
2022-10-23T06:31:25.685Z,14.80
2022-10-23T06:34:30.603Z,15.00
2022-10-23T06:37:36.638Z,15.10
2022-10-23T06:40:41.649Z,15.30
2022-10-23T06:43:46.733Z,15.50
2022-10-23T06:46:54.671Z,15.70
2022-10-23T06:49:59.684Z,15.86
2022-10-23T06:53:05.682Z,16.00
2022-10-23T06:56:11.745Z,16.20
2022-10-23T06:59:16.686Z,16.40
2022-10-23T07:02:21.703Z,16.60
2022-10-23T07:05:18.725Z,16.80
2022-10-23T07:08:24.727Z,17.00
2022-10-23T07:11:29.734Z,17.20
2022-10-23T07:14:37.721Z,17.40
2022-10-23T07:17:43.726Z,17.50
2022-10-23T07:20:49.734Z,17.60
2022-10-23T07:23:55.757Z,17.68
2022-10-23T07:26:59.801Z,17.80
2022-10-23T07:30:04.785Z,17.90
2022-10-23T07:33:10.766Z,18.10
2022-10-23T07:36:04.790Z,18.40
2022-10-23T07:39:09.806Z,18.50
2022-10-23T07:42:15.804Z,18.68
2022-10-23T07:45:21.801Z,18.80
2022-10-23T07:48:26.837Z,18.90
2022-10-23T07:51:31.830Z,19.00
2022-10-23T07:54:40.830Z,19.10
2022-10-23T07:57:46.848Z,19.20
2022-10-23T08:00:55.910Z,19.26
2022-10-23T08:04:03.856Z,19.30
2022-10-23T08:07:08.850Z,19.30
2022-10-23T08:10:16.863Z,19.30
2022-10-23T08:13:22.918Z,19.30
2022-10-23T08:16:27.873Z,19.20
2022-10-23T08:19:31.884Z,19.20
2022-10-23T08:22:37.975Z,19.10
2022-10-23T08:25:43.899Z,19.10
2022-10-23T08:28:49.924Z,19.10
2022-10-23T08:31:55.964Z,19.10
2022-10-23T08:35:00.984Z,19.10
2022-10-23T08:38:05.969Z,19.10
2022-10-23T08:41:11.947Z,19.10
2022-10-23T08:44:16.964Z,19.10
2022-10-23T08:47:21.974Z,19.20
2022-10-23T08:50:26.990Z,19.30
2022-10-23T08:53:32.088Z,19.40
2022-10-23T08:56:37.995Z,19.50
2022-10-23T08:59:44.053Z,19.60
2022-10-23T09:02:49.077Z,19.72
2022-10-23T09:05:54.014Z,19.90
2022-10-23T09:09:00.016Z,19.90
2022-10-23T09:12:05.999Z,20.00
2022-10-23T09:15:11.051Z,20.10
2022-10-23T09:18:17.028Z,20.20
2022-10-23T09:21:22.065Z,20.30
2022-10-23T09:24:28.031Z,20.36
2022-10-23T09:27:34.062Z,20.44
2022-10-23T09:30:39.081Z,20.50
2022-10-23T09:33:44.159Z,20.62
2022-10-23T09:36:50.168Z,20.74
2022-10-23T09:39:55.099Z,20.80
2022-10-23T09:43:00.222Z,20.90
2022-10-23T09:46:06.131Z,20.90
2022-10-23T09:49:11.102Z,20.92
2022-10-23T09:52:16.140Z,20.90
2022-10-23T09:55:21.136Z,20.90
2022-10-23T09:58:30.208Z,20.90
2022-10-23T10:01:36.479Z,20.80
2022-10-23T10:04:41.175Z,20.78
2022-10-23T10:07:47.189Z,20.80
2022-10-23T10:10:41.169Z,20.90
2022-10-23T10:13:46.187Z,21.00
2022-10-23T10:16:51.214Z,21.10
2022-10-23T10:19:56.204Z,21.10
2022-10-23T10:23:01.186Z,21.20
2022-10-23T10:26:06.316Z,21.30
2022-10-23T10:29:11.192Z,21.38
2022-10-23T10:32:17.248Z,21.40
2022-10-23T10:35:23.226Z,21.50
2022-10-23T10:38:28.261Z,21.52
2022-10-23T10:41:41.272Z,21.60
2022-10-23T10:44:49.379Z,21.60
2022-10-23T10:47:54.287Z,21.60
2022-10-23T10:51:09.298Z,21.70
2022-10-23T10:54:14.268Z,21.80
2022-10-23T10:57:19.303Z,21.80
2022-10-23T11:00:24.307Z,21.84
2022-10-23T11:03:30.327Z,21.90
2022-10-23T11:06:36.351Z,22.00
2022-10-23T11:09:41.351Z,22.00
2022-10-23T11:12:34.331Z,22.00
2022-10-23T11:15:39.357Z,22.10
2022-10-23T11:18:45.461Z,22.10
2022-10-23T11:21:51.327Z,22.14
2022-10-23T11:24:58.492Z,22.20
2022-10-23T11:28:35.437Z,22.20
2022-10-23T11:31:39.394Z,22.20
2022-10-23T11:34:45.401Z,22.20
2022-10-23T11:37:50.381Z,22.20
2022-10-23T11:40:55.395Z,22.24
2022-10-23T11:44:10.413Z,22.20
2022-10-23T11:47:15.423Z,22.26
2022-10-23T11:50:53.455Z,22.30
2022-10-23T11:53:58.456Z,22.30
2022-10-23T11:57:07.011Z,22.30
2022-10-23T12:00:16.519Z,22.30
2022-10-23T12:03:21.425Z,22.30
2022-10-23T12:06:27.472Z,22.30
2022-10-23T12:09:35.509Z,22.34
2022-10-23T12:12:40.466Z,22.38
2022-10-23T12:15:45.487Z,22.36
2022-10-23T12:18:50.555Z,22.32
2022-10-23T12:21:55.504Z,22.30
2022-10-23T12:25:00.513Z,22.30
2022-10-23T12:28:06.513Z,22.20
2022-10-23T12:31:11.522Z,22.20
2022-10-23T12:34:16.549Z,22.20
2022-10-23T12:37:20.553Z,22.20
2022-10-23T12:40:29.527Z,22.10
2022-10-23T12:43:39.659Z,22.10
2022-10-23T12:46:45.621Z,21.92
2022-10-23T12:49:50.558Z,21.88
2022-10-23T12:52:55.596Z,21.80
2022-10-23T12:59:04.621Z,21.78
2022-10-23T13:02:10.770Z,21.80
2022-10-23T13:05:18.666Z,21.80
2022-10-23T13:08:23.629Z,21.80
2022-10-23T13:11:28.634Z,21.80
2022-10-23T13:14:33.646Z,21.72
2022-10-23T13:17:39.656Z,21.70
2022-10-23T13:20:46.647Z,21.60
2022-10-23T13:23:52.675Z,21.50
2022-10-23T13:26:58.705Z,21.48
2022-10-23T13:30:05.045Z,21.40
2022-10-23T13:33:14.690Z,21.30
2022-10-23T13:36:19.722Z,21.20
2022-10-23T13:39:28.808Z,21.10
2022-10-23T13:42:33.744Z,21.10
2022-10-23T13:45:38.834Z,21.06
2022-10-23T13:48:43.722Z,21.00
2022-10-23T13:51:48.758Z,20.96
2022-10-23T13:54:53.749Z,20.90
2022-10-23T13:57:59.809Z,20.82
2022-10-23T14:01:04.831Z,20.80
2022-10-23T14:04:10.756Z,20.80
2022-10-23T14:07:15.781Z,20.70
2022-10-23T14:10:23.529Z,20.70
2022-10-23T14:13:30.804Z,20.62
2022-10-23T14:16:36.786Z,20.60
2022-10-23T14:19:45.778Z,20.54
2022-10-23T14:22:51.807Z,20.50
2022-10-23T14:25:56.837Z,20.40
2022-10-23T14:29:09.823Z,20.38
2022-10-23T14:32:22.836Z,20.30
2022-10-23T14:35:28.856Z,20.22
2022-10-23T14:38:33.906Z,20.20
2022-10-23T14:41:39.911Z,20.10
2022-10-23T14:44:45.151Z,20.08
2022-10-23T14:47:49.944Z,20.00
2022-10-23T14:50:55.890Z,20.00
2022-10-23T14:53:59.922Z,19.90
2022-10-23T14:57:04.905Z,19.86
2022-10-23T15:00:10.049Z,19.80
2022-10-23T15:03:17.907Z,19.80
2022-10-23T15:06:22.975Z,19.76
2022-10-23T15:09:27.963Z,19.70
2022-10-23T15:15:43.952Z,19.60
2022-10-23T15:18:49.958Z,19.60
2022-10-23T15:21:55.204Z,19.60
2022-10-23T15:25:00.963Z,19.50
2022-10-23T15:28:07.046Z,19.48
2022-10-23T15:31:13.015Z,19.40
2022-10-23T15:34:17.971Z,19.30
2022-10-23T15:37:24.017Z,19.26
2022-10-23T15:40:30.120Z,19.20
2022-10-23T15:43:35.019Z,19.14
2022-10-23T15:46:40.017Z,19.10
2022-10-23T15:49:46.012Z,19.10
2022-10-23T15:52:54.076Z,19.00
2022-10-23T15:55:58.048Z,19.00
2022-10-23T15:59:10.128Z,18.94
2022-10-23T16:02:21.174Z,18.90
2022-10-23T16:05:27.068Z,18.90
2022-10-23T16:08:32.154Z,18.84
2022-10-23T16:11:42.121Z,18.80
2022-10-23T16:14:46.102Z,18.80
2022-10-23T16:17:52.128Z,18.80
2022-10-23T16:20:57.125Z,18.70
2022-10-23T16:23:51.103Z,18.70
2022-10-23T16:26:57.128Z,18.70
2022-10-23T16:30:03.178Z,18.70
2022-10-23T16:33:08.205Z,18.60
2022-10-23T16:36:16.132Z,18.60
2022-10-23T16:39:20.180Z,18.52
2022-10-23T16:42:26.162Z,18.50
2022-10-23T16:45:34.446Z,18.46
2022-10-23T16:48:41.165Z,18.42
2022-10-23T16:51:50.197Z,18.40
2022-10-23T16:54:55.253Z,18.40
2022-10-23T16:58:01.305Z,18.32
2022-10-23T17:01:06.338Z,18.30
2022-10-23T17:04:11.249Z,18.30
2022-10-23T17:07:16.279Z,18.30
2022-10-23T17:10:22.354Z,18.30
2022-10-23T17:13:28.253Z,18.24
2022-10-23T17:16:33.346Z,18.20
2022-10-23T17:19:46.040Z,18.20
2022-10-23T17:22:52.337Z,18.20
2022-10-23T17:25:57.260Z,18.20
2022-10-23T17:29:02.265Z,18.20
2022-10-23T17:32:06.417Z,18.20
2022-10-23T17:35:14.316Z,18.10
2022-10-23T17:38:19.306Z,18.10
2022-10-23T17:41:24.297Z,18.10
2022-10-23T17:44:34.320Z,18.00
2022-10-23T17:47:39.364Z,18.00
2022-10-23T17:50:44.348Z,18.00
2022-10-23T17:53:50.343Z,17.90
2022-10-23T17:56:56.375Z,17.90
2022-10-23T18:00:04.340Z,17.90
2022-10-23T18:03:09.378Z,17.90
2022-10-23T18:06:17.385Z,17.90
2022-10-23T18:09:22.489Z,17.90
2022-10-23T18:12:28.388Z,17.88
2022-10-23T18:15:41.424Z,17.80
2022-10-23T18:18:46.456Z,17.80
2022-10-23T18:21:52.422Z,17.76
2022-10-23T18:24:58.690Z,17.70
2022-10-23T18:28:04.482Z,17.70
2022-10-23T18:31:09.422Z,17.62
2022-10-23T18:34:15.430Z,17.60
2022-10-23T18:37:26.798Z,17.60
2022-10-23T18:40:33.502Z,17.52
2022-10-23T18:43:44.021Z,17.50
2022-10-23T18:46:49.435Z,17.40
2022-10-23T18:49:55.474Z,17.40
2022-10-23T18:53:00.520Z,17.40
2022-10-23T18:56:06.495Z,17.40
2022-10-23T18:59:12.507Z,17.40
2022-10-23T19:02:17.854Z,17.40
2022-10-23T19:05:23.518Z,17.40
2022-10-23T19:08:28.577Z,17.30
2022-10-23T19:11:33.529Z,17.30
2022-10-23T19:14:38.617Z,17.20
2022-10-23T19:17:43.607Z,17.20
2022-10-23T19:21:10.559Z,17.10
2022-10-23T19:24:19.575Z,17.10
2022-10-23T19:27:27.657Z,17.06
2022-10-23T19:30:32.602Z,17.06
2022-10-23T19:33:38.612Z,16.92
2022-10-23T19:36:52.649Z,16.90
2022-10-23T19:39:58.620Z,16.70
2022-10-23T19:43:04.696Z,16.70
2022-10-23T19:46:12.266Z,16.70
2022-10-23T19:49:16.780Z,16.70
2022-10-23T19:52:22.646Z,16.70
2022-10-23T19:55:30.667Z,16.70
2022-10-23T19:58:34.638Z,16.70
2022-10-23T20:01:39.961Z,16.70
2022-10-23T20:04:45.662Z,16.70
2022-10-23T20:07:50.753Z,16.64
2022-10-23T20:10:59.672Z,16.60
2022-10-23T20:14:04.707Z,16.56
2022-10-23T20:17:08.881Z,16.50
2022-10-23T20:20:16.731Z,16.40
2022-10-23T20:23:55.730Z,16.40
2022-10-23T20:27:00.727Z,16.40
2022-10-23T20:30:09.919Z,16.40
2022-10-23T20:33:14.795Z,16.30
2022-10-23T20:36:22.738Z,16.30
2022-10-23T20:39:30.762Z,16.30
2022-10-23T20:42:35.781Z,16.30
2022-10-23T20:45:40.783Z,16.30
2022-10-23T20:48:45.785Z,16.30
2022-10-23T20:51:54.779Z,16.30
2022-10-23T20:54:59.784Z,16.30
2022-10-23T20:58:04.802Z,16.30
2022-10-23T21:01:10.945Z,16.26
2022-10-23T21:04:15.873Z,16.30
2022-10-23T21:07:20.811Z,16.30
2022-10-23T21:10:26.812Z,16.26
2022-10-23T21:13:32.887Z,16.22
2022-10-23T21:16:37.817Z,16.20
2022-10-23T21:19:45.877Z,16.20
2022-10-23T21:22:51.866Z,16.14
2022-10-23T21:25:56.861Z,16.10
2022-10-23T21:29:17.513Z,16.04
2022-10-23T21:32:22.934Z,16.00
2022-10-23T21:35:30.004Z,15.98
2022-10-23T21:38:35.895Z,15.96
2022-10-23T21:41:41.004Z,15.90
2022-10-23T21:44:45.933Z,15.92
2022-10-23T21:47:51.925Z,15.90
2022-10-23T21:50:57.993Z,15.86
2022-10-23T21:54:02.917Z,15.80
2022-10-23T21:57:07.934Z,15.80
2022-10-23T22:00:13.933Z,15.80
2022-10-23T22:03:18.991Z,15.70
2022-10-23T22:06:23.982Z,15.70
2022-10-23T22:09:29.994Z,15.70
2022-10-23T22:12:34.984Z,15.70
2022-10-23T22:15:41.006Z,15.60
2022-10-23T22:18:49.005Z,15.60
2022-10-23T22:21:54.999Z,15.60
2022-10-23T22:25:00.050Z,15.60
2022-10-23T22:28:05.102Z,15.50
2022-10-23T22:31:09.035Z,15.50
2022-10-23T22:34:26.662Z,15.50
2022-10-23T22:37:43.032Z,15.50
2022-10-23T22:40:51.041Z,15.50
2022-10-23T22:43:57.060Z,15.40
2022-10-23T22:47:02.071Z,15.40
2022-10-23T22:50:08.078Z,15.40
2022-10-23T22:53:13.201Z,15.30
2022-10-23T22:56:19.147Z,15.16
2022-10-23T22:59:25.112Z,15.10
2022-10-23T23:02:30.109Z,15.00
2022-10-23T23:05:34.126Z,15.00
2022-10-23T23:08:40.146Z,15.00
2022-10-23T23:11:51.602Z,15.00
2022-10-23T23:14:57.159Z,14.90
2022-10-23T23:18:03.148Z,14.90
2022-10-23T23:21:08.181Z,14.82
2022-10-23T23:24:17.165Z,14.86
2022-10-23T23:27:21.158Z,14.90
2022-10-23T23:30:27.228Z,14.90
2022-10-23T23:33:32.157Z,14.90
2022-10-23T23:36:37.179Z,14.90
2022-10-23T23:39:42.253Z,14.90
2022-10-23T23:42:46.474Z,14.90
2022-10-23T23:45:51.202Z,14.86
2022-10-23T23:48:57.279Z,14.80
2022-10-23T23:52:03.206Z,14.64
2022-10-23T23:55:09.242Z,14.60
2022-10-23T23:58:15.249Z,14.60
